Time;durP1;ratioP1;P1;durP2;ratioP2;P2;SDS_P1;SDS_P2;PMS_P1;PMS_P2;Temp;Humidity;BMP_temperature;BMP_pressure;BME280_temperature;BME280_humidity;BME280_pressure;Samples;Min_cycle;Max_cycle;Signal;HPM_P1;HPM_P2
2022/09/12 00:00:36;;;;;;;14.50;7.87;;;;;;;;;;5010990;28;20240;-83
2022/09/12 00:03:03;;;;;;;16.80;8.10;;;;;;;;;;5010118;28;20703;-83
2022/09/12 00:05:31;;;;;;;17.60;8.10;;;;;;;;;;5010856;28;20211;-84
2022/09/12 00:07:59;;;;;;;15.13;7.13;;;;;;;;;;5012798;28;20212;-81
2022/09/12 00:10:26;;;;;;;14.13;7.53;;;;;;;;;;5015259;28;20905;-83
2022/09/12 00:12:53;;;;;;;15.50;7.90;;;;;;;;;;5013504;28;20255;-80
2022/09/12 00:15:21;;;;;;;14.83;8.07;;;;;;;;;;5015119;28;20218;-82
2022/09/12 00:17:49;;;;;;;16.73;7.77;;;;;;;;;;5013445;28;20216;-84
2022/09/12 00:20:19;;;;;;;18.37;8.27;;;;;;;;;;5011213;28;20200;-82
2022/09/12 00:22:47;;;;;;;17.03;8.13;;;;;;;;;;5005756;28;20336;-82
2022/09/12 00:25:14;;;;;;;14.97;7.67;;;;;;;;;;5008087;28;20231;-81
2022/09/12 00:27:41;;;;;;;14.73;7.87;;;;;;;;;;5013183;28;20204;-81
2022/09/12 00:30:09;;;;;;;11.50;7.27;;;;;;;;;;5010921;28;20262;-81
2022/09/12 00:32:36;;;;;;;13.23;7.10;;;;;;;;;;5011485;28;20756;-81
2022/09/12 00:35:05;;;;;;;13.43;7.47;;;;;;;;;;5010605;28;20283;-84
2022/09/12 00:37:32;;;;;;;12.80;6.37;;;;;;;;;;5014024;28;20287;-84
2022/09/12 00:39:59;;;;;;;13.23;7.07;;;;;;;;;;5012785;28;20291;-85
2022/09/12 00:42:26;;;;;;;12.13;6.90;;;;;;;;;;5008190;28;20229;-81
2022/09/12 00:44:53;;;;;;;16.77;7.53;;;;;;;;;;5015097;28;20216;-83
2022/09/12 00:47:22;;;;;;;17.20;7.13;;;;;;;;;;5012771;28;20220;-80
2022/09/12 00:49:52;;;;;;;12.93;7.30;;;;;;;;;;5014207;28;20196;-81
2022/09/12 00:52:24;;;;;;;15.70;7.27;;;;;;;;;;5011256;28;20273;-80
2022/09/12 00:54:53;;;;;;;13.60;7.20;;;;;;;;;;5009703;28;20594;-80
2022/09/12 00:57:22;;;;;;;13.33;6.97;;;;;;;;;;5011347;28;20669;-83
2022/09/12 00:59:51;;;;;;;19.43;7.10;;;;;;;;;;5014691;28;20235;-84
2022/09/12 01:02:18;;;;;;;12.30;7.10;;;;;;;;;;5016685;28;20204;-84
2022/09/12 01:04:46;;;;;;;13.83;7.43;;;;;;;;;;5009031;28;20214;-83
2022/09/12 01:07:16;;;;;;;18.00;7.57;;;;;;;;;;5011372;28;20627;-83
2022/09/12 01:09:45;;;;;;;15.23;7.63;;;;;;;;;;5010480;28;20243;-82
2022/09/12 01:12:14;;;;;;;16.10;8.30;;;;;;;;;;5012072;28;20215;-86
2022/09/12 01:14:41;;;;;;;13.73;7.43;;;;;;;;;;5012343;28;20275;-83
2022/09/12 01:17:08;;;;;;;21.33;7.77;;;;;;;;;;5013981;28;20288;-86
2022/09/12 01:19:47;;;;;;;19.70;8.60;;;;;;;;;;5015033;28;20205;-84
2022/09/12 01:22:22;;;;;;;13.83;7.77;;;;;;;;;;5014055;28;20200;-84
2022/09/12 01:25:03;;;;;;;16.50;8.20;;;;;;;;;;5016511;28;20196;-85
2022/09/12 01:27:36;;;;;;;19.60;8.23;;;;;;;;;;5016984;28;20313;-84
2022/09/12 01:30:06;;;;;;;15.17;8.60;;;;;;;;;;5011792;28;22130;-82
2022/09/12 01:32:40;;;;;;;17.23;7.93;;;;;;;;;;5013000;28;20235;-81
2022/09/12 01:35:15;;;;;;;18.67;8.63;;;;;;;;;;5015530;28;20199;-82
2022/09/12 01:37:46;;;;;;;17.20;8.83;;;;;;;;;;5012191;28;20196;-82
2022/09/12 01:40:15;;;;;;;17.77;8.37;;;;;;;;;;5010851;28;20204;-83
2022/09/12 01:42:45;;;;;;;18.40;8.77;;;;;;;;;;5013905;28;20750;-81
2022/09/12 01:45:17;;;;;;;20.33;9.43;;;;;;;;;;5011212;28;20203;-84
2022/09/12 01:47:48;;;;;;;21.73;9.37;;;;;;;;;;5011111;28;20209;-86
2022/09/12 01:50:18;;;;;;;26.03;10.33;;;;;;;;;;5017234;28;20214;-85
2022/09/12 01:52:49;;;;;;;26.50;9.67;;;;;;;;;;5009532;28;20321;-83
2022/09/12 01:55:18;;;;;;;31.67;10.10;;;;;;;;;;5012346;28;20323;-82
2022/09/12 01:57:49;;;;;;;23.43;10.13;;;;;;;;;;5013707;28;20763;-84
2022/09/12 02:00:17;;;;;;;27.37;10.80;;;;;;;;;;5005014;28;20204;-85
2022/09/12 02:02:49;;;;;;;20.10;9.93;;;;;;;;;;5008613;28;20229;-83
2022/09/12 02:05:18;;;;;;;18.33;8.23;;;;;;;;;;5014907;28;20274;-85
2022/09/12 02:07:48;;;;;;;21.40;9.33;;;;;;;;;;5012204;28;20212;-81
2022/09/12 02:10:16;;;;;;;17.03;8.40;;;;;;;;;;5006997;28;20688;-81
2022/09/12 02:12:47;;;;;;;18.03;8.93;;;;;;;;;;5012996;28;20230;-82
2022/09/12 02:15:14;;;;;;;17.23;8.23;;;;;;;;;;5012178;28;20196;-82
2022/09/12 02:17:43;;;;;;;17.40;8.37;;;;;;;;;;5015771;28;20196;-82
2022/09/12 02:20:15;;;;;;;21.17;9.13;;;;;;;;;;5010601;28;20319;-84
2022/09/12 02:22:43;;;;;;;22.77;9.30;;;;;;;;;;5010947;28;20788;-83
2022/09/12 02:25:10;;;;;;;20.27;8.57;;;;;;;;;;5015851;28;20258;-83
2022/09/12 02:27:40;;;;;;;24.43;8.50;;;;;;;;;;5009644;28;20293;-83
2022/09/12 02:30:08;;;;;;;20.07;8.73;;;;;;;;;;5011381;28;20592;-82
2022/09/12 02:32:38;;;;;;;22.13;8.73;;;;;;;;;;5017320;28;20724;-82
2022/09/12 02:35:07;;;;;;;39.07;9.63;;;;;;;;;;5011832;28;20255;-82
2022/09/12 02:37:39;;;;;;;25.23;9.23;;;;;;;;;;5010340;28;20212;-80
2022/09/12 02:40:07;;;;;;;21.90;8.73;;;;;;;;;;5012334;28;20284;-82
2022/09/12 02:42:38;;;;;;;23.53;9.43;;;;;;;;;;5017761;28;20235;-81
2022/09/12 02:45:05;;;;;;;15.37;7.97;;;;;;;;;;5014131;28;20287;-81
2022/09/12 02:47:34;;;;;;;18.93;8.40;;;;;;;;;;5016527;28;20236;-82
2022/09/12 02:50:04;;;;;;;21.40;9.00;;;;;;;;;;5012858;28;20677;-80
2022/09/12 02:52:31;;;;;;;24.97;8.87;;;;;;;;;;5016550;28;20224;-79
2022/09/12 02:55:00;;;;;;;18.97;8.80;;;;;;;;;;5009678;28;20240;-81
2022/09/12 02:57:27;;;;;;;18.90;8.60;;;;;;;;;;5016906;28;20312;-80
2022/09/12 02:59:56;;;;;;;17.50;8.70;;;;;;;;;;5013449;28;20625;-81
2022/09/12 03:02:28;;;;;;;24.27;8.87;;;;;;;;;;5015523;28;20263;-81
2022/09/12 03:05:09;;;;;;;17.53;8.83;;;;;;;;;;5014388;28;20201;-83
2022/09/12 03:07:44;;;;;;;20.83;9.70;;;;;;;;;;5007821;28;20222;-83
2022/09/12 03:10:16;;;;;;;18.27;8.43;;;;;;;;;;5010621;28;20291;-83
2022/09/12 03:12:48;;;;;;;14.07;7.43;;;;;;;;;;5011695;28;20259;-83
2022/09/12 03:15:24;;;;;;;16.63;8.47;;;;;;;;;;5012769;28;20259;-84
2022/09/12 03:18:02;;;;;;;20.33;8.10;;;;;;;;;;5013937;28;20204;-82
2022/09/12 03:20:34;;;;;;;21.60;7.80;;;;;;;;;;5007732;28;20319;-84
2022/09/12 03:23:03;;;;;;;16.87;7.53;;;;;;;;;;5016888;28;20243;-83
2022/09/12 03:25:35;;;;;;;14.97;7.67;;;;;;;;;;5012263;28;20211;-83
2022/09/12 03:28:08;;;;;;;16.50;7.73;;;;;;;;;;5013128;28;20208;-84
2022/09/12 03:30:39;;;;;;;15.63;7.73;;;;;;;;;;5015133;28;20661;-83
2022/09/12 03:35:50;;;;;;;15.97;7.57;;;;;;;;;;5011390;28;20223;-83
2022/09/12 03:38:18;;;;;;;14.70;7.30;;;;;;;;;;5010577;28;20255;-83
2022/09/12 03:40:46;;;;;;;11.83;6.83;;;;;;;;;;5014266;28;20329;-85
2022/09/12 03:43:14;;;;;;;13.07;7.60;;;;;;;;;;5019254;28;20232;-83
2022/09/12 03:45:41;;;;;;;14.27;6.77;;;;;;;;;;5009415;28;20232;-83
2022/09/12 03:48:08;;;;;;;14.53;7.03;;;;;;;;;;5015356;28;20580;-82
2022/09/12 03:50:35;;;;;;;11.27;6.53;;;;;;;;;;5012372;28;20208;-82
2022/09/12 03:53:05;;;;;;;11.27;5.97;;;;;;;;;;5032914;28;20242;-80
2022/09/12 03:55:35;;;;;;;15.03;7.20;;;;;;;;;;5031115;28;20212;-83
2022/09/12 03:58:06;;;;;;;16.30;7.97;;;;;;;;;;5015915;28;20208;-82
2022/09/12 04:00:36;;;;;;;13.40;6.63;;;;;;;;;;5016688;28;20624;-84
2022/09/12 04:03:03;;;;;;;16.50;7.07;;;;;;;;;;5018419;28;20232;-83
2022/09/12 04:05:32;;;;;;;16.00;7.70;;;;;;;;;;5016850;28;20656;-83
2022/09/12 04:08:00;;;;;;;11.47;6.73;;;;;;;;;;5010459;28;20295;-82
2022/09/12 04:10:27;;;;;;;16.80;7.07;;;;;;;;;;5008367;28;20332;-82
2022/09/12 04:12:59;;;;;;;12.60;5.53;;;;;;;;;;5013796;28;20677;-82
2022/09/12 04:15:57;;;;;;;16.67;6.70;;;;;;;;;;5007465;28;20232;-83
2022/09/12 04:18:25;;;;;;;13.13;6.63;;;;;;;;;;5012444;28;20200;-82
2022/09/12 04:20:52;;;;;;;12.83;6.23;;;;;;;;;;5018244;28;20220;-85
2022/09/12 04:23:19;;;;;;;10.87;6.37;;;;;;;;;;5018287;28;20247;-82
2022/09/12 04:25:54;;;;;;;12.33;6.63;;;;;;;;;;5011112;28;20207;-82
2022/09/12 04:28:23;;;;;;;16.23;6.63;;;;;;;;;;5014788;28;20195;-83
2022/09/12 04:30:51;;;;;;;16.57;6.63;;;;;;;;;;5012814;28;20661;-84
2022/09/12 04:33:19;;;;;;;13.70;6.93;;;;;;;;;;5014219;28;20361;-82
2022/09/12 04:36:00;;;;;;;13.50;6.47;;;;;;;;;;5007345;28;20229;-82
2022/09/12 04:38:27;;;;;;;22.37;6.43;;;;;;;;;;5012460;28;20211;-83
2022/09/12 04:40:55;;;;;;;13.83;6.40;;;;;;;;;;5011717;28;20210;-82
2022/09/12 04:43:23;;;;;;;16.20;7.47;;;;;;;;;;5013692;28;20224;-82
2022/09/12 04:45:50;;;;;;;15.53;6.97;;;;;;;;;;5012943;28;20205;-84
2022/09/12 04:48:17;;;;;;;17.67;6.57;;;;;;;;;;5013109;28;20219;-82
2022/09/12 04:50:46;;;;;;;14.93;6.57;;;;;;;;;;5013851;28;20624;-82
2022/09/12 04:53:13;;;;;;;14.33;6.77;;;;;;;;;;5013703;28;20228;-83
2022/09/12 04:55:40;;;;;;;18.00;6.00;;;;;;;;;;5015404;28;20579;-83
2022/09/12 04:58:08;;;;;;;13.60;6.63;;;;;;;;;;5018636;28;20733;-81
2022/09/12 05:00:35;;;;;;;13.07;6.30;;;;;;;;;;5012412;28;20919;-83
2022/09/12 05:03:03;;;;;;;18.47;6.47;;;;;;;;;;5016972;28;20232;-85
2022/09/12 05:05:31;;;;;;;10.80;5.60;;;;;;;;;;5010572;28;20211;-83
2022/09/12 05:08:00;;;;;;;9.87;5.63;;;;;;;;;;5016774;28;20263;-82
2022/09/12 05:10:27;;;;;;;9.50;5.77;;;;;;;;;;5014434;28;20235;-82
2022/09/12 05:12:56;;;;;;;11.67;5.57;;;;;;;;;;5012387;28;20239;-84
2022/09/12 05:15:24;;;;;;;11.23;6.40;;;;;;;;;;5013533;28;20299;-84
2022/09/12 05:17:51;;;;;;;10.97;6.17;;;;;;;;;;5015461;28;20208;-84
2022/09/12 05:20:19;;;;;;;12.77;5.83;;;;;;;;;;5012985;28;20273;-83
2022/09/12 05:22:47;;;;;;;11.30;6.20;;;;;;;;;;5013133;28;20311;-84
2022/09/12 05:25:16;;;;;;;8.93;5.60;;;;;;;;;;5013752;28;20211;-83
2022/09/12 05:27:46;;;;;;;12.03;6.27;;;;;;;;;;5018548;28;20673;-84
2022/09/12 05:30:14;;;;;;;15.73;6.23;;;;;;;;;;5013296;28;20219;-84
2022/09/12 05:32:44;;;;;;;15.73;6.43;;;;;;;;;;5010411;28;20302;-84
2022/09/12 05:35:13;;;;;;;15.07;5.90;;;;;;;;;;5014307;28;20287;-84
2022/09/12 05:37:44;;;;;;;21.13;6.57;;;;;;;;;;5013766;28;20215;-83
2022/09/12 05:43:07;;;;;;;12.43;6.70;;;;;;;;;;5012700;28;20260;-85
2022/09/12 05:45:35;;;;;;;13.90;6.70;;;;;;;;;;5011712;28;20211;-82
2022/09/12 05:48:05;;;;;;;11.73;6.90;;;;;;;;;;5011900;28;20213;-81
2022/09/12 06:18:49;;;;;;;12.57;6.03;;;;;;;;;;4920551;29;20219;-82
2022/09/12 06:21:17;;;;;;;15.33;5.90;;;;;;;;;;4943913;28;21331;-84
2022/09/12 06:23:47;;;;;;;16.77;6.30;;;;;;;;;;4972155;28;20250;-83
2022/09/12 06:26:16;;;;;;;13.30;5.33;;;;;;;;;;5011979;28;20206;-84
2022/09/12 06:28:45;;;;;;;10.80;6.10;;;;;;;;;;5011849;28;20215;-81
2022/09/12 06:34:53;;;;;;;15.33;6.30;;;;;;;;;;5012932;28;20211;-84
2022/09/12 06:37:22;;;;;;;12.80;6.27;;;;;;;;;;5011973;28;20201;-85
2022/09/12 06:39:49;;;;;;;11.50;5.60;;;;;;;;;;5014576;28;20683;-85
2022/09/12 06:42:18;;;;;;;8.00;5.27;;;;;;;;;;5012180;28;20545;-84
2022/09/12 06:44:46;;;;;;;11.67;6.07;;;;;;;;;;5015364;28;20669;-86
2022/09/12 06:47:13;;;;;;;10.93;5.83;;;;;;;;;;5015211;28;20653;-82
2022/09/12 06:49:40;;;;;;;10.23;5.93;;;;;;;;;;5015476;28;20211;-85
2022/09/12 06:52:08;;;;;;;12.53;5.83;;;;;;;;;;5012092;28;20204;-85
2022/09/12 06:54:36;;;;;;;9.70;5.53;;;;;;;;;;5015018;28;20225;-86
2022/09/12 06:57:03;;;;;;;9.77;5.17;;;;;;;;;;5010680;28;20261;-83
2022/09/12 06:59:31;;;;;;;9.10;5.70;;;;;;;;;;5014586;28;20570;-86
2022/09/12 07:02:01;;;;;;;8.90;5.00;;;;;;;;;;5012290;28;20206;-83
2022/09/12 07:04:29;;;;;;;9.13;5.43;;;;;;;;;;5012429;28;20228;-84
2022/09/12 07:09:49;;;;;;;9.17;5.23;;;;;;;;;;5014507;28;20254;-84
2022/09/12 07:12:16;;;;;;;9.60;4.60;;;;;;;;;;5011031;28;20188;-83
2022/09/12 07:14:44;;;;;;;7.00;4.60;;;;;;;;;;5004682;28;20268;-84
2022/09/12 07:22:51;;;;;;;7.87;4.50;;;;;;;;;;5012819;28;20224;-85
2022/09/12 07:40:15;;;;;;;6.50;4.00;;;;;;;;;;5000223;28;20231;-82
2022/09/12 07:45:50;;;;;;;6.30;3.80;;;;;;;;;;5011349;28;20192;-83
2022/09/12 07:48:34;;;;;;;7.10;3.60;;;;;;;;;;5014606;28;20201;-85
2022/09/12 07:51:03;;;;;;;6.10;3.50;;;;;;;;;;5014179;28;20314;-85
2022/09/12 07:53:32;;;;;;;7.60;3.90;;;;;;;;;;5014234;28;20224;-85
2022/09/12 07:56:03;;;;;;;7.67;3.93;;;;;;;;;;5017292;28;20229;-85
2022/09/12 07:58:45;;;;;;;7.77;3.70;;;;;;;;;;5015951;28;20215;-85
2022/09/12 08:01:25;;;;;;;5.40;3.53;;;;;;;;;;5016966;28;20235;-83
2022/09/12 08:04:11;;;;;;;5.73;4.00;;;;;;;;;;5012762;28;20291;-83
2022/09/12 08:07:00;;;;;;;7.20;3.80;;;;;;;;;;5010435;28;20212;-85
2022/09/12 08:22:03;;;;;;;5.53;3.70;;;;;;;;;;5001598;28;20204;-83
2022/09/12 08:27:18;;;;;;;7.57;4.03;;;;;;;;;;5010005;28;20204;-84
2022/09/12 08:29:46;;;;;;;8.93;3.90;;;;;;;;;;5013895;28;20200;-85
2022/09/12 08:32:14;;;;;;;9.60;4.80;;;;;;;;;;5009276;28;20261;-84
2022/09/12 08:37:33;;;;;;;9.17;4.03;;;;;;;;;;5010066;28;20266;-83
2022/09/12 08:40:00;;;;;;;9.17;4.17;;;;;;;;;;5013282;28;20255;-82
2022/09/12 08:42:33;;;;;;;6.23;4.10;;;;;;;;;;5010976;28;20240;-84
2022/09/12 08:45:07;;;;;;;8.20;4.40;;;;;;;;;;5011109;28;20299;-83
2022/09/12 08:47:36;;;;;;;8.33;4.40;;;;;;;;;;5013944;28;20286;-84
2022/09/12 08:50:06;;;;;;;9.17;4.47;;;;;;;;;;5013656;28;20212;-84
2022/09/12 08:52:40;;;;;;;6.77;4.00;;;;;;;;;;5013434;28;20787;-82
2022/09/12 09:43:26;;;;;;;13.97;6.03;;;;;;;;;;6090943;23;20204;-76
2022/09/12 09:45:53;;;;;;;11.73;6.60;;;;;;;;;;4947026;28;20218;-75
2022/09/12 09:48:23;;;;;;;8.87;5.20;;;;;;;;;;4951352;28;20631;-76
2022/09/12 09:50:50;;;;;;;9.63;5.70;;;;;;;;;;4948887;28;20581;-75
2022/09/12 09:53:26;;;;;;;10.70;5.73;;;;;;;;;;4952752;28;20226;-76
2022/09/12 09:55:57;;;;;;;9.10;5.10;;;;;;;;;;4951052;28;20214;-77
2022/09/12 09:58:35;;;;;;;10.60;6.67;;;;;;;;;;4952346;28;20206;-76
2022/09/12 10:01:04;;;;;;;13.53;6.57;;;;;;;;;;4950672;28;20929;-75
2022/09/12 10:03:37;;;;;;;11.57;5.27;;;;;;;;;;4951898;28;20704;-76
2022/09/12 10:06:07;;;;;;;11.50;6.07;;;;;;;;;;4950065;28;20202;-76
2022/09/12 10:11:38;;;;;;;12.33;6.13;;;;;;;;;;4953512;28;20185;-76
2022/09/12 10:14:24;;;;;;;11.27;6.47;;;;;;;;;;4950271;28;20236;-75
2022/09/12 10:16:53;;;;;;;11.07;6.47;;;;;;;;;;4954123;28;20233;-77
2022/09/12 10:19:23;;;;;;;9.20;6.40;;;;;;;;;;4952156;28;20224;-79
2022/09/12 10:21:51;;;;;;;13.10;6.50;;;;;;;;;;4949666;28;20217;-77
2022/09/12 10:24:21;;;;;;;9.23;5.73;;;;;;;;;;4950589;28;20227;-78
2022/09/12 10:26:50;;;;;;;11.60;6.13;;;;;;;;;;4946008;28;20199;-78
2022/09/12 10:29:26;;;;;;;12.37;6.73;;;;;;;;;;4946568;28;20199;-77
2022/09/12 10:31:55;;;;;;;10.53;6.47;;;;;;;;;;4948480;28;20722;-77
2022/09/12 10:34:24;;;;;;;10.67;6.37;;;;;;;;;;4951283;28;20230;-77
2022/09/12 10:36:53;;;;;;;9.03;5.27;;;;;;;;;;4947923;28;20234;-77
2022/09/12 10:39:21;;;;;;;13.23;5.37;;;;;;;;;;4951226;28;20297;-78
2022/09/12 10:41:48;;;;;;;9.67;5.50;;;;;;;;;;4949061;28;20578;-77
2022/09/12 10:44:16;;;;;;;11.73;5.40;;;;;;;;;;4948566;28;20236;-77
2022/09/12 10:46:47;;;;;;;11.87;5.93;;;;;;;;;;4946947;28;20203;-77
2022/09/12 10:49:21;;;;;;;9.07;5.80;;;;;;;;;;4948683;28;20220;-77
2022/09/12 10:51:48;;;;;;;9.97;5.97;;;;;;;;;;4949106;28;20564;-77
2022/09/12 10:54:17;;;;;;;10.60;5.37;;;;;;;;;;4950494;28;20233;-77
2022/09/12 10:56:48;;;;;;;9.33;5.40;;;;;;;;;;4951417;28;20230;-78
2022/09/12 10:59:24;;;;;;;8.20;5.10;;;;;;;;;;4948265;28;20598;-78
2022/09/12 11:01:55;;;;;;;9.03;5.50;;;;;;;;;;4950424;28;20198;-77
2022/09/12 11:04:27;;;;;;;12.30;6.33;;;;;;;;;;4949630;28;20607;-76
2022/09/12 11:07:03;;;;;;;10.73;6.33;;;;;;;;;;4955025;28;20214;-77
2022/09/12 11:09:35;;;;;;;10.83;5.70;;;;;;;;;;4952210;28;20202;-77
2022/09/12 11:12:08;;;;;;;10.73;5.40;;;;;;;;;;4949861;28;20214;-77
2022/09/12 11:14:44;;;;;;;8.30;5.10;;;;;;;;;;4953212;28;20298;-77
2022/09/12 11:17:20;;;;;;;8.73;5.33;;;;;;;;;;4954852;28;20232;-77
2022/09/12 11:20:04;;;;;;;8.90;5.03;;;;;;;;;;4956236;28;20208;-78
2022/09/12 11:22:37;;;;;;;8.67;5.27;;;;;;;;;;4948895;28;20210;-77
2022/09/12 11:25:14;;;;;;;8.47;5.23;;;;;;;;;;4951934;28;20206;-77
2022/09/12 11:27:49;;;;;;;9.87;4.97;;;;;;;;;;4953039;28;20292;-76
2022/09/12 11:30:17;;;;;;;8.67;5.00;;;;;;;;;;4950217;28;20198;-77
2022/09/12 11:32:53;;;;;;;8.27;4.80;;;;;;;;;;4948656;28;20234;-75
2022/09/12 11:35:24;;;;;;;9.97;5.10;;;;;;;;;;4952151;28;20212;-77
2022/09/12 11:38:00;;;;;;;6.23;4.50;;;;;;;;;;4950587;28;20206;-78
2022/09/12 11:40:30;;;;;;;9.13;4.43;;;;;;;;;;4954732;28;20202;-77
2022/09/12 11:43:00;;;;;;;8.70;4.10;;;;;;;;;;4954686;28;20590;-78
2022/09/12 11:45:29;;;;;;;8.00;4.63;;;;;;;;;;4953621;28;20210;-78
2022/09/12 11:48:00;;;;;;;6.97;4.40;;;;;;;;;;4957935;28;20206;-78
2022/09/12 11:50:28;;;;;;;9.10;4.70;;;;;;;;;;4954983;28;20209;-78
2022/09/12 11:52:58;;;;;;;9.27;4.73;;;;;;;;;;4950085;28;20222;-78
2022/09/12 11:55:28;;;;;;;6.70;4.33;;;;;;;;;;4949392;28;20217;-78
2022/09/12 11:57:56;;;;;;;7.90;4.23;;;;;;;;;;4954234;28;20206;-78
2022/09/12 12:00:25;;;;;;;5.97;4.20;;;;;;;;;;4949215;28;20198;-78
2022/09/12 12:02:58;;;;;;;9.70;4.27;;;;;;;;;;4952709;28;20222;-77
2022/09/12 12:05:29;;;;;;;7.07;4.60;;;;;;;;;;4949705;28;20206;-78
2022/09/12 12:07:57;;;;;;;7.53;4.70;;;;;;;;;;4950335;28;20206;-77
2022/09/12 12:10:26;;;;;;;6.80;4.13;;;;;;;;;;4949570;28;20217;-78
2022/09/12 12:12:55;;;;;;;6.00;4.00;;;;;;;;;;4953112;28;20328;-78
2022/09/12 12:15:23;;;;;;;6.93;3.80;;;;;;;;;;4952508;28;20224;-79
2022/09/12 12:18:01;;;;;;;6.67;4.43;;;;;;;;;;4946367;28;20680;-78
2022/09/12 12:20:30;;;;;;;9.37;3.90;;;;;;;;;;4952701;28;20209;-79
2022/09/12 12:22:57;;;;;;;6.73;4.37;;;;;;;;;;4949505;28;20708;-78
2022/09/12 12:25:28;;;;;;;7.40;3.97;;;;;;;;;;4953416;28;20679;-78
2022/09/12 12:27:58;;;;;;;5.93;3.87;;;;;;;;;;4949887;28;20206;-78
2022/09/12 12:30:43;;;;;;;5.63;3.93;;;;;;;;;;4950634;28;20222;-78
2022/09/12 12:33:26;;;;;;;6.33;3.67;;;;;;;;;;4949336;28;20240;-80
2022/09/12 12:36:04;;;;;;;7.40;3.60;;;;;;;;;;4952189;28;20213;-78
2022/09/12 12:38:31;;;;;;;6.00;3.83;;;;;;;;;;4948137;28;20425;-78
2022/09/12 12:41:17;;;;;;;7.50;3.77;;;;;;;;;;4944888;28;20210;-78
2022/09/12 12:43:45;;;;;;;6.87;3.67;;;;;;;;;;4947021;28;20321;-78
2022/09/12 12:46:14;;;;;;;7.10;3.57;;;;;;;;;;4946170;28;20656;-77
2022/09/12 12:48:56;;;;;;;5.87;3.53;;;;;;;;;;4948911;28;20233;-78
2022/09/12 12:51:49;;;;;;;6.07;3.43;;;;;;;;;;4952349;29;20249;-79
2022/09/12 12:54:43;;;;;;;5.10;3.40;;;;;;;;;;4951650;28;20605;-77
2022/09/12 12:57:19;;;;;;;5.87;3.37;;;;;;;;;;4951209;28;20224;-78
2022/09/12 12:59:47;;;;;;;6.67;3.30;;;;;;;;;;4952158;29;20210;-77
2022/09/12 13:02:18;;;;;;;4.90;3.87;;;;;;;;;;4953352;28;20234;-77
2022/09/12 13:04:46;;;;;;;7.33;3.30;;;;;;;;;;4951486;28;20286;-79
2022/09/12 13:07:22;;;;;;;5.03;3.07;;;;;;;;;;4949795;28;20206;-77
2022/09/12 13:09:53;;;;;;;4.90;2.97;;;;;;;;;;4952235;28;20204;-77
2022/09/12 13:12:22;;;;;;;6.30;2.87;;;;;;;;;;4952994;28;20206;-79
2022/09/12 13:14:51;;;;;;;5.17;2.87;;;;;;;;;;4950005;28;20289;-78
2022/09/12 13:17:24;;;;;;;4.77;2.63;;;;;;;;;;4951297;29;20234;-78
2022/09/12 13:19:52;;;;;;;6.67;2.87;;;;;;;;;;4949715;28;20214;-78
2022/09/12 13:22:22;;;;;;;5.23;2.97;;;;;;;;;;4949600;28;20565;-77
2022/09/12 13:24:51;;;;;;;5.17;2.93;;;;;;;;;;4947824;28;20204;-77
2022/09/12 13:27:19;;;;;;;4.47;2.63;;;;;;;;;;4949537;28;20206;-78
2022/09/12 13:29:46;;;;;;;5.23;2.80;;;;;;;;;;4950518;29;20205;-78
2022/09/12 13:32:14;;;;;;;4.30;2.80;;;;;;;;;;4950208;28;20206;-78
2022/09/12 13:34:48;;;;;;;5.40;2.83;;;;;;;;;;4947843;28;20219;-77
2022/09/12 13:37:41;;;;;;;4.57;3.00;;;;;;;;;;4951321;28;20217;-78
2022/09/12 13:40:17;;;;;;;5.33;3.50;;;;;;;;;;4946396;28;20230;-78
2022/09/12 13:42:45;;;;;;;5.67;3.67;;;;;;;;;;4951014;28;20237;-77
2022/09/12 13:45:14;;;;;;;8.43;3.90;;;;;;;;;;4949267;28;20579;-77
2022/09/12 13:47:43;;;;;;;6.33;4.20;;;;;;;;;;4948575;29;20689;-78
2022/09/12 13:50:15;;;;;;;7.23;3.87;;;;;;;;;;4948599;29;20218;-78
2022/09/12 13:52:46;;;;;;;6.13;3.83;;;;;;;;;;4949946;28;20230;-76
2022/09/12 13:55:22;;;;;;;5.47;3.50;;;;;;;;;;4951210;28;20245;-77
2022/09/12 13:57:56;;;;;;;6.57;3.50;;;;;;;;;;4951422;28;20226;-77
2022/09/12 14:00:24;;;;;;;9.43;3.97;;;;;;;;;;4950501;28;20210;-77
2022/09/12 14:05:06;;;;;;;5.30;3.80;;;;;;;;;;4952976;28;20228;-78
2022/09/12 14:05:44;;;;;;;5.23;3.60;;;;;;;;;;4953278;28;20234;-77
2022/09/12 14:08:14;;;;;;;6.50;3.70;;;;;;;;;;4951330;28;20198;-78
2022/09/12 14:10:42;;;;;;;7.00;3.97;;;;;;;;;;4950875;28;20293;-77
2022/09/12 14:13:12;;;;;;;6.80;3.63;;;;;;;;;;4944988;28;20266;-77
2022/09/12 14:15:39;;;;;;;6.43;3.70;;;;;;;;;;4950019;28;20215;-77
2022/09/12 14:18:07;;;;;;;9.67;5.40;;;;;;;;;;4950141;28;20233;-78
2022/09/12 14:20:37;;;;;;;5.03;3.40;;;;;;;;;;4952854;28;20339;-77
2022/09/12 14:23:07;;;;;;;5.87;3.90;;;;;;;;;;4952368;28;20709;-77
2022/09/12 14:25:40;;;;;;;7.83;4.17;;;;;;;;;;4952960;28;20653;-77
2022/09/12 14:28:11;;;;;;;5.83;3.73;;;;;;;;;;4951796;28;20202;-77
2022/09/12 14:30:39;;;;;;;5.60;3.83;;;;;;;;;;4949148;28;20673;-76
2022/09/12 14:33:17;;;;;;;5.90;3.87;;;;;;;;;;4951917;28;20269;-77
2022/09/12 14:35:46;;;;;;;7.77;3.80;;;;;;;;;;4951717;28;20209;-78
2022/09/12 14:38:19;;;;;;;5.77;3.80;;;;;;;;;;4947507;28;20321;-77
2022/09/12 14:40:48;;;;;;;7.03;3.90;;;;;;;;;;4953700;28;20211;-77
2022/09/12 14:43:18;;;;;;;5.20;3.63;;;;;;;;;;4951518;28;20607;-78
2022/09/12 14:45:58;;;;;;;7.20;4.30;;;;;;;;;;4951603;28;20594;-78
2022/09/12 14:48:26;;;;;;;5.40;3.90;;;;;;;;;;4952603;28;20198;-78
2022/09/12 14:50:53;;;;;;;5.53;3.67;;;;;;;;;;4949739;28;20225;-78
2022/09/12 14:53:23;;;;;;;7.17;4.37;;;;;;;;;;4952267;28;20230;-77
2022/09/12 14:55:53;;;;;;;9.80;4.47;;;;;;;;;;4945508;28;20203;-77
2022/09/12 14:58:25;;;;;;;6.10;4.20;;;;;;;;;;4941613;28;20223;-78
2022/09/12 15:01:00;;;;;;;5.70;4.00;;;;;;;;;;4950498;28;20254;-77
2022/09/12 15:03:32;;;;;;;6.50;3.77;;;;;;;;;;4947400;28;20226;-78
2022/09/12 15:06:03;;;;;;;4.90;3.47;;;;;;;;;;4951419;28;20214;-77
2022/09/12 15:08:31;;;;;;;6.10;3.57;;;;;;;;;;4949839;28;20210;-77
2022/09/12 15:11:00;;;;;;;4.83;3.50;;;;;;;;;;4945212;28;22533;-78
2022/09/12 15:13:39;;;;;;;5.93;3.60;;;;;;;;;;4949192;28;20271;-77
2022/09/12 15:16:09;;;;;;;6.33;3.30;;;;;;;;;;4949392;28;20317;-77
2022/09/12 15:18:36;;;;;;;6.13;3.43;;;;;;;;;;4949837;28;20573;-77
2022/09/12 15:21:12;;;;;;;5.03;3.50;;;;;;;;;;4950704;28;20678;-76
2022/09/12 15:23:41;;;;;;;6.40;3.83;;;;;;;;;;4948466;28;20225;-77
2022/09/12 15:26:12;;;;;;;8.07;3.73;;;;;;;;;;4950183;28;20206;-77
2022/09/12 15:28:39;;;;;;;6.97;3.73;;;;;;;;;;4947822;28;20290;-77
2022/09/12 15:31:13;;;;;;;5.70;3.70;;;;;;;;;;4950052;28;20221;-78
2022/09/12 15:33:46;;;;;;;5.67;3.70;;;;;;;;;;4947455;28;20230;-77
2022/09/12 15:36:17;;;;;;;6.67;3.90;;;;;;;;;;4943857;28;20754;-78
2022/09/12 15:38:45;;;;;;;5.73;3.30;;;;;;;;;;4946521;28;20613;-78
2022/09/12 15:41:13;;;;;;;6.63;3.53;;;;;;;;;;4947003;28;20202;-78
2022/09/12 15:43:42;;;;;;;4.40;2.90;;;;;;;;;;4947895;28;20249;-77
2022/09/12 15:46:10;;;;;;;3.60;2.80;;;;;;;;;;4946487;28;20216;-77
2022/09/12 15:48:41;;;;;;;5.63;3.60;;;;;;;;;;4948515;28;20211;-77
2022/09/12 15:51:11;;;;;;;4.30;3.17;;;;;;;;;;4946453;28;20206;-78
2022/09/12 15:53:38;;;;;;;7.70;3.10;;;;;;;;;;4944711;28;20226;-77
2022/09/12 15:56:05;;;;;;;4.47;3.10;;;;;;;;;;4949862;28;20206;-78
2022/09/12 15:58:33;;;;;;;4.73;2.93;;;;;;;;;;4949484;28;20226;-77
2022/09/12 16:01:05;;;;;;;3.97;2.83;;;;;;;;;;4946565;28;20214;-77
2022/09/12 16:03:35;;;;;;;4.47;2.80;;;;;;;;;;4945565;28;20599;-78
2022/09/12 16:06:03;;;;;;;4.90;2.67;;;;;;;;;;4948383;28;20298;-78
2022/09/12 16:08:31;;;;;;;3.73;2.57;;;;;;;;;;4949582;28;20203;-77
2022/09/12 16:10:59;;;;;;;3.77;2.70;;;;;;;;;;4949971;28;20565;-77
2022/09/12 16:13:26;;;;;;;4.13;2.70;;;;;;;;;;4948157;28;20217;-78
2022/09/12 16:15:56;;;;;;;7.07;2.60;;;;;;;;;;4948610;28;20300;-78
2022/09/12 16:18:28;;;;;;;7.43;2.63;;;;;;;;;;4993552;23;20232;-75
2022/09/12 16:20:56;;;;;;;4.07;2.60;;;;;;;;;;4979805;28;20272;-74
2022/09/12 16:23:25;;;;;;;3.50;2.50;;;;;;;;;;4985642;28;20212;-75
2022/09/12 16:25:58;;;;;;;4.33;2.77;;;;;;;;;;4977935;28;20209;-75
2022/09/12 16:28:25;;;;;;;4.10;2.50;;;;;;;;;;4979948;28;20229;-75
2022/09/12 16:30:56;;;;;;;4.97;2.93;;;;;;;;;;4979864;28;20205;-74
2022/09/12 16:33:24;;;;;;;3.40;2.40;;;;;;;;;;4980420;28;20260;-75
2022/09/12 16:35:53;;;;;;;3.93;2.50;;;;;;;;;;4981868;28;20205;-75
2022/09/12 16:38:20;;;;;;;7.60;2.53;;;;;;;;;;4978959;28;20244;-75
2022/09/12 16:40:48;;;;;;;5.43;2.70;;;;;;;;;;4982944;28;20204;-74
2022/09/12 16:43:16;;;;;;;7.17;2.60;;;;;;;;;;4986931;28;20280;-75
2022/09/12 16:45:43;;;;;;;5.03;2.97;;;;;;;;;;4985361;28;20305;-75
2022/09/12 16:48:10;;;;;;;4.53;2.80;;;;;;;;;;4982861;28;20213;-75
2022/09/12 16:50:40;;;;;;;5.10;2.87;;;;;;;;;;4981839;28;20216;-75
2022/09/12 16:53:07;;;;;;;5.07;3.27;;;;;;;;;;4980586;28;20236;-76
2022/09/12 16:55:34;;;;;;;6.03;3.13;;;;;;;;;;4980925;28;20201;-76
2022/09/12 16:58:02;;;;;;;6.47;3.07;;;;;;;;;;4983865;28;20233;-75
2022/09/12 17:00:31;;;;;;;7.60;3.40;;;;;;;;;;4988145;28;20201;-75
2022/09/12 17:03:03;;;;;;;11.87;4.00;;;;;;;;;;4981158;28;20767;-75
2022/09/12 17:05:30;;;;;;;12.07;4.23;;;;;;;;;;4982656;28;20211;-76
2022/09/12 17:07:59;;;;;;;8.20;4.47;;;;;;;;;;4981629;28;20316;-76